Pagrindinis puslapis
METAR-TAF:

METAR-TAF

Oro uostai :

Tarava, Kiribatis

platuma: 01-21N, ilguma: 172-55E, Aukštis: 2 m

Dabartinis oras

Ataskaita buvo paskelbta 30 minutes, ne 09:00 UTC
Vėjas 6 kt iš Šiaurės Rytų
Temperatūra 29°C
Drėgmė 84%
Slėgis 1009 hPa
Matomumas 10 km arba daugiau
Mažai debesys ne aukštis 1900 ft

METAR: NGTA 290900Z 04006KT 9999 FEW019 29/26 Q1009

Laikas: 23:30 (09:30 UTC)

Prognozė

Ataskaita buvo paskelbta 4 valandos ir 22 minutes, ne 05:08 UTC
Prognozė galioja nuo 29 metu 06 UTC su 01 metu 06 UTC
Vėjas 7 kt iš Rytų/Šiaurės Rytų
Matomumas 10 km arba daugiau
Išsisklaidę debesys ne aukštis 1800 ft
Su prošvaistėmis ne aukštis 10000 ft
Tikimybė 40% :
Laikinai
nuo 29 metu 12 UTC su 29 metu 24 UTC
Matomumas: 5000 m
Su prošvaistėmis ne aukštis 1500 ft
Mažai debesys ne aukštis 1800 ft, Liūtiniai kamuoliniai debesys.
perkūnija, lietus

TAF: NGTA 290508Z 2906/0106 07007KT 9999 SCT018 BKN100 PROB40 TEMPO 2912/2924 5000 TSRA BKN015 FEW018CB

Orai ataskaitas ir orų prognozės (METAR, TAF).

turimą stotys yra geltonos ir raudonos taškus žemėlapyje.

Perkelti pele per norėdami pamatyti stoties vardą.

Tada spustelėkite, norėdami matyti oro stebėjimo ir prognozės.

Norėdami pakeisti žemėlapį: spustelėkite ant žalios mygtukų su juodo kryžiaus žemyn,; žalią mygtuką su brūkšneliu, jei norite nutolinti; arba žalių rodyklių gretimoms žemėlapius.


METAR-TAF: